CheckWX is a tool to help pilots better visualize weather data.  It is not intended as a substitute for an official pre-flight weather briefing.

12:57:37 UTC

SBRP TAF
Leite Lopes Airport
Ribeirão Preto, Brazil
TAF SBRP 221033Z 2212/2312 14007KT CAVOK TX27/2218Z TN19/2309Z BECMG 2213/2215 11005KT SCT030 PROB30 2216/2221 SHRA BECMG 2222/2224 CAVOK RMK PGN

Mar-22@
12:00 UTC

Mar-22 @ 12:00 UTC

Mar-22@
13:00 UTC

Mar-22 @ 13:00 UTC

TAF SBRP 221033Z 2212/2312 14007KT CAVOK TX27/2218Z TN19/2309Z
Wind
  • 140° at 7 KTS
Cloud Levels
  • No significant clouds

Mar-22@
13:00 UTC

Mar-22 @ 13:00 UTC

Mar-22@
22:00 UTC

Mar-22 @ 22:00 UTC

BECMG 2213/2215 11005KT SCT030

Becoming

Becoming Conditions expected by Fri, Mar 22, 2019 @ 15:00 UTC

Wind
  • 110° at 5 KTS
Cloud Levels
  • Scattered at 3,000' AGL

Mar-22@
16:00 UTC

Mar-22 @ 16:00 UTC

Mar-22@
21:00 UTC

Mar-22 @ 21:00 UTC

PROB30 2216/2221 SHRA

Probable - 30% Likelihood

Probable - 30% Likelihood during this time.

Conditions
Rain

Mar-22@
22:00 UTC

Mar-22 @ 22:00 UTC

Mar-23@
12:00 UTC

Mar-23 @ 12:00 UTC

BECMG 2222/2224 CAVOK RMK PGN

Becoming

Becoming Conditions expected by Sat, Mar 23, 2019 @ 00:00 UTC

Wind
  • 110° at 5 KTS
Conditions
No significant weather
Cloud Levels
  • No significant clouds